Dracena, Brazil
Current Conditions -  °F | °C
As of 12:00 PM on Friday 24 Oct 2014 (Local Time) from SBDN Reporting Station
Overcast Overcast  
Wind Chill: 82°   Ceiling: 3600
Heat Index: 83°   Visibility: 6mi
Dew Point: 63°   Wind: 7mph
Humidity: 51%   Direction: 350°N
Pressure: 30"   Gusts: NA
Location:  21.48°S, 51.53°W
Report Text: SBDN 241400Z 35006KT 9999 OVC036 28/17 Q1016
Loading
Personal Weather Stations






























Interactive Weather Map
Tropical Storm Tracking
New forecast layout! Learn more

10-Day Weather Forecast

Advertisements
Track Severe Weather on mobile